Terminal Aerodrome Forecast
Issued by NWS Mobile, AL

Home | Current Version | Previous Version | Text Only | Print | Product List | Glossary On
Versions: 1 2 3 4 5 6 7 8 9 10 11 12 13 14 15 16 17 18 19 20 21 22 23 24 25 26 27 28 29 30 31 32 33
000
FTUS44 KMOB 201100
TAFMOB
TAF
KMOB 201140Z 2012/2112 01010KT 5SM -RA BR VCSH OVC005
     FM201500 03010KT 4SM -RA OVC015
     FM202000 03008KT P6SM OVC025=

USA.gov is the U.S. government's official web portal to all federal, state and local government web resources and services.